createdAt,value
2018-09-05T00:00:21.944Z,17.87
2018-09-05T00:02:49.595Z,18.67
2018-09-05T00:05:17.191Z,17.83
2018-09-05T00:07:44.864Z,17.20
2018-09-05T00:10:12.779Z,15.93
2018-09-05T00:12:40.583Z,17.40
2018-09-05T00:15:08.324Z,18.33
2018-09-05T00:17:35.907Z,16.50
2018-09-05T00:20:03.623Z,16.60
2018-09-05T00:22:31.259Z,18.20
2018-09-05T00:24:59.007Z,17.93
2018-09-05T00:27:26.567Z,17.33
2018-09-05T00:29:54.212Z,17.63
2018-09-05T00:32:21.913Z,16.73
2018-09-05T00:34:49.572Z,17.07
2018-09-05T00:37:17.323Z,15.80
2018-09-05T00:39:44.967Z,18.23
2018-09-05T00:42:12.679Z,16.43
2018-09-05T00:44:40.322Z,17.10
2018-09-05T00:47:08.035Z,17.50
2018-09-05T00:49:35.779Z,17.30
2018-09-05T00:52:03.451Z,17.77
2018-09-05T00:54:31.063Z,17.00
2018-09-05T00:56:58.650Z,18.20
2018-09-05T00:59:26.492Z,18.93
2018-09-05T01:01:54.051Z,17.93
2018-09-05T01:04:21.736Z,16.10
2018-09-05T01:06:49.356Z,16.40
2018-09-05T01:09:16.951Z,16.50
2018-09-05T01:11:44.757Z,15.70
2018-09-05T01:14:12.655Z,17.33
2018-09-05T01:16:40.316Z,15.67
2018-09-05T01:19:07.847Z,16.63
2018-09-05T01:21:35.439Z,16.03
2018-09-05T01:24:03.168Z,16.80
2018-09-05T01:26:30.743Z,16.60
2018-09-05T01:28:58.358Z,15.77
2018-09-05T01:31:26.183Z,17.03
2018-09-05T01:33:54.542Z,16.70
2018-09-05T01:36:22.557Z,16.13
2018-09-05T01:38:50.342Z,15.83
2018-09-05T01:41:17.975Z,15.00
2018-09-05T01:43:45.715Z,17.50
2018-09-05T01:46:13.443Z,17.97
2018-09-05T01:48:41.196Z,17.63
2018-09-05T01:51:08.971Z,15.87
2018-09-05T01:53:36.512Z,16.50
2018-09-05T01:56:04.194Z,16.17
2018-09-05T01:58:31.971Z,16.50
2018-09-05T02:00:59.639Z,16.90
2018-09-05T02:03:27.307Z,15.73
2018-09-05T02:05:55.787Z,16.90
2018-09-05T02:08:23.497Z,16.87
2018-09-05T02:10:51.146Z,16.60
2018-09-05T02:13:18.713Z,16.90
2018-09-05T02:15:47.184Z,16.70
2018-09-05T02:18:14.881Z,15.57
2018-09-05T02:20:42.651Z,18.20
2018-09-05T02:23:10.457Z,16.73
2018-09-05T02:25:38.779Z,16.07
2018-09-05T02:28:07.054Z,16.40
2018-09-05T02:30:34.707Z,16.00
2018-09-05T02:33:02.379Z,16.53
2018-09-05T02:35:30.223Z,15.03
2018-09-05T02:37:57.894Z,14.87
2018-09-05T02:40:26.566Z,16.00
2018-09-05T02:42:54.167Z,16.90
2018-09-05T02:45:21.848Z,17.63
2018-09-05T02:47:49.584Z,16.50
2018-09-05T02:50:17.151Z,16.23
2018-09-05T02:52:44.904Z,16.20
2018-09-05T02:55:17.051Z,17.73
2018-09-05T02:57:44.595Z,17.57
2018-09-05T03:00:12.343Z,18.57
2018-09-05T03:02:39.975Z,16.10
2018-09-05T03:05:07.583Z,18.30
2018-09-05T03:07:35.262Z,18.20
2018-09-05T03:10:03.007Z,16.90
2018-09-05T03:12:31.187Z,17.40
2018-09-05T03:14:58.880Z,16.87
2018-09-05T03:17:26.515Z,16.30
2018-09-05T03:19:54.176Z,16.13
2018-09-05T03:22:21.776Z,15.93
2018-09-05T03:24:49.639Z,14.90
2018-09-05T03:27:17.204Z,15.93
2018-09-05T03:29:44.751Z,16.23
2018-09-05T03:32:13.632Z,16.10
2018-09-05T03:34:41.419Z,17.60
2018-09-05T03:37:09.360Z,18.93
2018-09-05T03:39:37.006Z,20.03
2018-09-05T03:42:04.963Z,18.60
2018-09-05T03:44:32.775Z,19.23
2018-09-05T03:47:00.316Z,18.47
2018-09-05T03:49:28.211Z,19.57
2018-09-05T03:51:55.936Z,19.80
2018-09-05T03:54:24.087Z,19.60
2018-09-05T03:56:52.100Z,19.87
2018-09-05T03:59:19.895Z,17.60
2018-09-05T04:01:47.483Z,18.80
2018-09-05T04:04:15.112Z,19.23
2018-09-05T04:06:42.915Z,19.53
2018-09-05T04:09:10.588Z,19.47
2018-09-05T04:11:38.544Z,19.73
2018-09-05T04:14:06.473Z,20.87
2018-09-05T04:16:34.096Z,20.87
2018-09-05T04:19:01.891Z,21.77
2018-09-05T04:21:29.531Z,20.47
2018-09-05T04:23:57.076Z,18.50
2018-09-05T04:26:24.745Z,20.33
2018-09-05T04:28:52.454Z,20.70
2018-09-05T04:31:21.900Z,20.40
2018-09-05T04:33:50.068Z,22.07
2018-09-05T04:36:18.306Z,21.70
2018-09-05T04:38:46.467Z,21.97
2018-09-05T04:41:14.937Z,26.33
2018-09-05T04:43:42.667Z,24.50
2018-09-05T04:46:10.347Z,23.67
2018-09-05T04:48:37.931Z,22.23
2018-09-05T04:51:05.680Z,22.53
2018-09-05T04:53:33.366Z,25.20
2018-09-05T04:56:01.217Z,27.17
2018-09-05T04:58:29.094Z,25.17
2018-09-05T05:00:57.790Z,22.80
2018-09-05T05:03:25.396Z,25.03
2018-09-05T05:05:53.223Z,23.73
2018-09-05T05:08:20.875Z,20.13
2018-09-05T05:10:48.628Z,21.40
2018-09-05T05:13:16.467Z,21.30
2018-09-05T05:15:44.152Z,19.53
2018-09-05T05:18:11.795Z,21.20
2018-09-05T05:20:39.493Z,19.67
2018-09-05T05:23:07.251Z,21.70
2018-09-05T05:25:34.972Z,21.07
2018-09-05T05:28:02.794Z,19.80
2018-09-05T05:30:30.647Z,20.73
2018-09-05T05:32:58.337Z,21.20
2018-09-05T05:35:25.963Z,20.43
2018-09-05T05:37:53.820Z,20.10
2018-09-05T05:40:22.145Z,20.43
2018-09-05T05:42:49.837Z,21.67
2018-09-05T05:45:17.636Z,21.30
2018-09-05T05:47:45.397Z,21.50
2018-09-05T05:50:13.127Z,21.97
2018-09-05T05:52:41.012Z,24.00
2018-09-05T05:55:09.148Z,22.30
2018-09-05T05:57:36.804Z,25.20
2018-09-05T06:00:05.403Z,21.93
2018-09-05T06:02:33.263Z,24.70
2018-09-05T06:05:01.109Z,24.63
2018-09-05T06:07:29.741Z,25.70
2018-09-05T06:09:57.440Z,28.30
2018-09-05T06:12:25.001Z,27.97
2018-09-05T06:14:52.777Z,26.77
2018-09-05T06:17:20.568Z,29.30
2018-09-05T06:19:48.441Z,27.57
2018-09-05T06:22:17.256Z,28.30
2018-09-05T06:24:44.958Z,31.50
2018-09-05T06:27:12.564Z,28.03
2018-09-05T06:29:40.937Z,29.57
2018-09-05T06:32:09.275Z,30.03
2018-09-05T06:34:36.964Z,27.63
2018-09-05T06:37:05.032Z,28.37
2018-09-05T06:39:32.671Z,29.37
2018-09-05T06:42:01.361Z,30.70
2018-09-05T06:44:29.326Z,28.23
2018-09-05T06:46:57.827Z,30.70
2018-09-05T06:49:25.466Z,32.20
2018-09-05T06:51:53.131Z,31.13
2018-09-05T06:54:22.144Z,31.53
2018-09-05T06:56:49.799Z,32.40
2018-09-05T06:59:17.472Z,31.77
2018-09-05T07:01:45.259Z,30.00
2018-09-05T07:04:13.004Z,31.07
2018-09-05T07:06:40.750Z,30.50
2018-09-05T07:09:10.179Z,30.33
2018-09-05T07:11:38.168Z,30.93
2018-09-05T07:14:06.314Z,28.37
2018-09-05T07:16:34.003Z,31.80
2018-09-05T07:19:01.755Z,32.03
2018-09-05T07:21:29.485Z,29.10
2018-09-05T07:23:56.987Z,30.63
2018-09-05T07:26:24.687Z,29.77
2018-09-05T07:28:52.591Z,29.60
2018-09-05T07:31:20.424Z,30.50
2018-09-05T07:33:48.211Z,29.50
2018-09-05T07:36:15.959Z,31.40
2018-09-05T07:38:43.600Z,31.90
2018-09-05T07:41:11.247Z,32.03
2018-09-05T07:43:38.985Z,28.30
2018-09-05T07:46:06.909Z,32.13
2018-09-05T07:48:34.683Z,33.00
2018-09-05T07:51:02.414Z,31.40
2018-09-05T07:53:30.595Z,30.00
2018-09-05T07:55:58.451Z,35.73
2018-09-05T07:58:26.288Z,32.77
2018-09-05T08:00:54.144Z,33.00
2018-09-05T08:03:22.864Z,33.57
2018-09-05T08:05:50.436Z,31.07
2018-09-05T08:08:18.272Z,32.23
2018-09-05T08:10:45.831Z,32.77
2018-09-05T08:13:13.736Z,29.80
2018-09-05T08:15:41.356Z,34.20
2018-09-05T08:18:09.011Z,30.97
2018-09-05T08:20:36.611Z,33.37
2018-09-05T08:23:04.723Z,28.90
2018-09-05T08:25:32.519Z,31.70
2018-09-05T08:28:00.312Z,32.23
2018-09-05T08:30:27.879Z,27.40
2018-09-05T08:32:55.543Z,29.47
2018-09-05T08:35:24.217Z,27.77
2018-09-05T08:37:51.852Z,30.60
2018-09-05T08:40:19.803Z,31.60
2018-09-05T08:42:47.411Z,28.33
2018-09-05T08:45:15.245Z,30.13
2018-09-05T08:47:43.458Z,31.57
2018-09-05T08:50:11.629Z,28.63
2018-09-05T08:52:39.875Z,29.70
2018-09-05T08:55:07.650Z,29.20
2018-09-05T08:57:35.364Z,24.83
2018-09-05T09:00:03.148Z,30.43
2018-09-05T09:02:30.860Z,28.40
2018-09-05T09:04:58.485Z,21.43
2018-09-05T09:07:26.166Z,24.17
2018-09-05T09:09:54.423Z,25.87
2018-09-05T09:12:22.196Z,17.70
2018-09-05T09:14:50.480Z,31.63
2018-09-05T09:17:18.058Z,24.60
2018-09-05T09:19:45.843Z,30.40
2018-09-05T09:22:13.488Z,28.00
2018-09-05T09:24:41.332Z,31.30
2018-09-05T09:27:09.783Z,25.03
2018-09-05T09:29:37.549Z,29.50
2018-09-05T09:32:05.554Z,32.27
2018-09-05T09:34:33.168Z,30.90
2018-09-05T09:37:00.948Z,30.53
2018-09-05T09:39:29.207Z,26.43
2018-09-05T09:41:57.015Z,29.60
2018-09-05T09:44:24.849Z,24.50
2018-09-05T09:46:52.687Z,22.50
2018-09-05T09:49:20.863Z,25.97
2018-09-05T09:51:48.699Z,24.20
2018-09-05T09:54:16.235Z,27.70
2018-09-05T09:56:44.897Z,28.90
2018-09-05T09:59:13.104Z,26.63
2018-09-05T10:01:46.481Z,27.40
2018-09-05T10:04:19.895Z,28.70
2018-09-05T10:06:50.145Z,29.77
2018-09-05T10:09:23.643Z,28.50
2018-09-05T10:11:57.093Z,21.23
2018-09-05T10:14:30.991Z,24.33
2018-09-05T10:17:04.246Z,23.77
2018-09-05T10:19:31.936Z,25.67
2018-09-05T10:21:59.553Z,25.97
2018-09-05T10:24:27.340Z,28.03
2018-09-05T10:26:55.001Z,22.77
2018-09-05T10:29:23.620Z,24.17
2018-09-05T10:31:51.492Z,21.53
2018-09-05T10:34:19.128Z,22.17
2018-09-05T10:36:46.767Z,23.07
2018-09-05T10:39:14.434Z,17.17
2018-09-05T10:41:42.098Z,18.97
2018-09-05T10:44:09.966Z,17.37
2018-09-05T10:46:37.900Z,26.03
2018-09-05T10:49:06.251Z,25.20
2018-09-05T10:51:39.594Z,26.60
2018-09-05T10:54:07.610Z,21.83
2018-09-05T10:56:35.349Z,22.60
2018-09-05T10:59:03.056Z,24.90
2018-09-05T11:01:30.907Z,24.20
2018-09-05T11:03:59.023Z,24.83
2018-09-05T11:06:26.799Z,15.33
2018-09-05T11:08:54.955Z,16.47
2018-09-05T11:11:22.535Z,25.20
2018-09-05T11:13:50.415Z,24.20
2018-09-05T11:16:18.663Z,21.07
2018-09-05T11:18:46.667Z,20.70
2018-09-05T11:21:14.701Z,20.10
2018-09-05T11:23:42.300Z,23.67
2018-09-05T11:26:10.187Z,21.20
2018-09-05T11:28:37.892Z,18.20
2018-09-05T11:31:06.475Z,19.00
2018-09-05T11:33:34.031Z,23.43
2018-09-05T11:36:01.772Z,21.07
2018-09-05T11:38:30.035Z,24.90
2018-09-05T11:40:57.884Z,24.03
2018-09-05T11:43:25.843Z,24.27
2018-09-05T11:45:53.664Z,20.87
2018-09-05T11:48:21.475Z,19.80
2018-09-05T11:50:49.171Z,21.20
2018-09-05T11:53:16.852Z,18.20
2018-09-05T11:55:45.109Z,19.10
2018-09-05T11:58:12.795Z,20.27
2018-09-05T12:00:40.467Z,23.40
2018-09-05T12:03:08.088Z,19.43
2018-09-05T12:05:35.776Z,23.67
2018-09-05T12:08:03.746Z,19.47
2018-09-05T12:10:31.570Z,23.20
2018-09-05T12:12:59.203Z,20.90
2018-09-05T12:15:27.163Z,22.17
2018-09-05T12:17:55.034Z,22.40
2018-09-05T12:20:22.828Z,19.90
2018-09-05T12:22:50.479Z,21.20
2018-09-05T12:25:18.688Z,19.70
2018-09-05T12:27:46.391Z,22.80
2018-09-05T12:30:13.955Z,23.40
2018-09-05T12:32:41.652Z,23.83
2018-09-05T12:35:09.409Z,17.87
2018-09-05T12:37:37.211Z,22.50
2018-09-05T12:40:05.347Z,23.70
2018-09-05T12:42:33.690Z,23.83
2018-09-05T12:45:01.448Z,24.30
2018-09-05T12:47:29.752Z,23.37
2018-09-05T12:49:57.314Z,24.30
2018-09-05T12:52:25.039Z,22.97
2018-09-05T12:54:52.867Z,23.93
2018-09-05T12:57:20.760Z,24.20
2018-09-05T12:59:48.541Z,23.07
2018-09-05T13:02:16.238Z,22.00
2018-09-05T13:04:43.939Z,19.90
2018-09-05T13:07:12.509Z,21.27
2018-09-05T13:09:40.325Z,19.33
2018-09-05T13:12:08.068Z,21.30
2018-09-05T13:14:35.775Z,23.30
2018-09-05T13:17:03.532Z,22.70
2018-09-05T13:19:31.415Z,23.83
2018-09-05T13:21:58.975Z,23.93
2018-09-05T13:24:26.620Z,23.97
2018-09-05T13:26:54.336Z,21.27
2018-09-05T13:29:22.255Z,25.63
2018-09-05T13:31:50.052Z,19.90
2018-09-05T13:34:17.900Z,23.23
2018-09-05T13:36:45.487Z,23.03
2018-09-05T13:39:13.168Z,24.00
2018-09-05T13:41:40.923Z,22.63
2018-09-05T13:44:09.315Z,22.27
2018-09-05T13:46:37.195Z,22.13
2018-09-05T13:49:04.948Z,21.43
2018-09-05T13:51:32.727Z,19.83
2018-09-05T13:54:00.868Z,21.07
2018-09-05T13:56:29.190Z,18.40
2018-09-05T13:58:56.838Z,22.80
2018-09-05T14:01:25.061Z,20.77
2018-09-05T14:03:52.767Z,20.37
2018-09-05T14:06:20.384Z,20.33
2018-09-05T14:08:48.916Z,20.10
2018-09-05T14:11:16.745Z,19.53
2018-09-05T14:13:44.425Z,20.53
2018-09-05T14:16:12.168Z,20.57
2018-09-05T14:18:39.828Z,17.20
2018-09-05T14:21:07.504Z,19.17
2018-09-05T14:23:35.196Z,20.10
2018-09-05T14:26:03.675Z,18.90
2018-09-05T14:28:32.075Z,19.73
2018-09-05T14:30:59.847Z,19.97
2018-09-05T14:33:27.714Z,17.50
2018-09-05T14:35:55.573Z,16.70
2018-09-05T14:38:23.489Z,19.37
2018-09-05T14:40:51.272Z,19.23
2018-09-05T14:43:18.931Z,17.90
2018-09-05T14:45:46.691Z,17.50
2018-09-05T14:48:14.540Z,17.70
2018-09-05T14:50:42.119Z,17.43
2018-09-05T14:53:09.903Z,19.57
2018-09-05T14:55:37.655Z,17.80
2018-09-05T14:58:05.564Z,19.23
2018-09-05T15:00:33.207Z,18.37
2018-09-05T15:03:00.917Z,17.57
2018-09-05T15:05:28.599Z,17.17
2018-09-05T15:07:56.245Z,17.97
2018-09-05T15:10:23.948Z,18.73
2018-09-05T15:12:51.875Z,17.43
2018-09-05T15:15:19.617Z,18.57
2018-09-05T15:17:47.311Z,17.77
2018-09-05T15:20:15.028Z,16.63
2018-09-05T15:22:42.800Z,17.63
2018-09-05T15:25:10.851Z,16.57
2018-09-05T15:27:38.449Z,17.43
2018-09-05T15:30:07.156Z,18.30
2018-09-05T15:32:34.829Z,17.43
2018-09-05T15:35:02.444Z,17.93
2018-09-05T15:37:30.151Z,16.57
2018-09-05T15:39:57.780Z,17.87
2018-09-05T15:42:25.479Z,16.63
2018-09-05T15:44:53.404Z,17.50
2018-09-05T15:47:21.152Z,18.17
2018-09-05T15:49:48.919Z,17.17
2018-09-05T15:52:16.488Z,17.07
2018-09-05T15:54:44.142Z,17.87
2018-09-05T15:57:11.856Z,17.77
2018-09-05T15:59:39.587Z,17.30
2018-09-05T16:02:07.388Z,17.47
2018-09-05T16:04:34.957Z,15.77
2018-09-05T16:07:02.652Z,17.70
2018-09-05T16:09:30.443Z,16.90
2018-09-05T16:11:59.256Z,15.97
2018-09-05T16:14:27.021Z,17.13
2018-09-05T16:16:55.067Z,17.50
2018-09-05T16:19:22.732Z,17.03
2018-09-05T16:21:51.092Z,15.30
2018-09-05T16:24:18.648Z,15.50
2018-09-05T16:26:47.016Z,17.40
2018-09-05T16:29:15.079Z,16.60
2018-09-05T16:31:42.744Z,17.00
2018-09-05T16:34:10.383Z,16.00
2018-09-05T16:36:38.179Z,16.97
2018-09-05T16:39:08.859Z,17.20
2018-09-05T16:41:37.295Z,16.63
2018-09-05T16:44:05.551Z,15.83
2018-09-05T16:46:33.279Z,16.40
2018-09-05T16:49:01.754Z,16.83
2018-09-05T16:51:29.323Z,17.47
2018-09-05T16:53:57.042Z,15.53
2018-09-05T16:56:24.893Z,17.00
2018-09-05T16:58:52.571Z,17.93
2018-09-05T17:01:20.953Z,18.70
2018-09-05T17:03:48.852Z,17.43
2018-09-05T17:06:17.104Z,16.80
2018-09-05T17:08:44.817Z,17.23
2018-09-05T17:11:12.623Z,18.40
2018-09-05T17:13:40.301Z,19.60
2018-09-05T17:16:08.118Z,19.17
2018-09-05T17:18:35.808Z,20.43
2018-09-05T17:21:04.160Z,18.50
2018-09-05T17:23:31.825Z,20.40
2018-09-05T17:26:00.921Z,19.10
2018-09-05T17:28:28.713Z,18.30
2018-09-05T17:30:56.601Z,19.20
2018-09-05T17:33:24.293Z,18.73
2018-09-05T17:35:51.995Z,20.80
2018-09-05T17:38:19.695Z,21.30
2018-09-05T17:40:47.599Z,19.47
2018-09-05T17:43:15.304Z,19.20
2018-09-05T17:45:42.926Z,21.07
2018-09-05T17:48:10.651Z,20.87
2018-09-05T17:50:38.444Z,19.97
2018-09-05T17:53:06.166Z,18.83
2018-09-05T17:55:34.036Z,19.33
2018-09-05T17:58:01.887Z,18.93
2018-09-05T18:00:29.824Z,19.63
2018-09-05T18:02:57.460Z,19.77
2018-09-05T18:05:25.364Z,20.80
2018-09-05T18:07:54.527Z,20.70
2018-09-05T18:10:22.248Z,20.97
2018-09-05T18:12:51.123Z,21.20
2018-09-05T18:15:18.683Z,21.30
2018-09-05T18:17:46.312Z,21.97
2018-09-05T18:20:15.123Z,21.57
2018-09-05T18:22:42.910Z,23.70
2018-09-05T18:25:10.671Z,22.60
2018-09-05T18:27:38.304Z,22.43
2018-09-05T18:30:06.779Z,23.10
2018-09-05T18:32:34.770Z,22.83
2018-09-05T18:35:03.288Z,24.60
2018-09-05T18:37:30.928Z,24.20
2018-09-05T18:39:58.741Z,23.83
2018-09-05T18:42:26.440Z,22.67
2018-09-05T18:44:54.424Z,25.33
2018-09-05T18:47:22.236Z,25.43
2018-09-05T18:49:49.996Z,25.37
2018-09-05T18:52:17.764Z,23.90
2018-09-05T18:54:45.516Z,24.57
2018-09-05T18:57:13.980Z,24.20
2018-09-05T18:59:41.594Z,25.13
2018-09-05T19:02:09.930Z,24.90
2018-09-05T19:04:37.812Z,24.93
2018-09-05T19:07:05.935Z,24.90
2018-09-05T19:09:33.735Z,24.40
2018-09-05T19:12:01.643Z,24.80
2018-09-05T19:14:29.393Z,25.40
2018-09-05T19:16:56.999Z,26.10
2018-09-05T19:19:24.764Z,25.00
2018-09-05T19:21:52.403Z,25.80
2018-09-05T19:24:19.987Z,25.93
2018-09-05T19:26:47.679Z,25.57
2018-09-05T19:29:15.758Z,27.20
2018-09-05T19:31:43.675Z,27.30
2018-09-05T19:34:11.259Z,30.00
2018-09-05T19:36:39.839Z,27.47
2018-09-05T19:39:09.287Z,26.40
2018-09-05T19:41:36.941Z,25.43
2018-09-05T19:44:04.899Z,26.93
2018-09-05T19:46:32.547Z,27.07
2018-09-05T19:49:00.416Z,27.57
2018-09-05T19:51:28.907Z,27.43
2018-09-05T19:53:56.812Z,28.77
2018-09-05T19:56:24.423Z,28.23
2018-09-05T19:58:52.163Z,29.60
2018-09-05T20:01:20.617Z,27.47
2018-09-05T20:03:48.253Z,26.83
2018-09-05T20:06:16.051Z,26.80
2018-09-05T20:08:43.780Z,29.00
2018-09-05T20:11:11.291Z,28.13
2018-09-05T20:13:38.951Z,29.47
2018-09-05T20:16:06.532Z,28.10
2018-09-05T20:18:34.291Z,26.80
2018-09-05T20:21:02.252Z,30.20
2018-09-05T20:23:29.939Z,29.03
2018-09-05T20:25:58.355Z,28.70
2018-09-05T20:28:26.453Z,27.00
2018-09-05T20:30:54.971Z,27.13
2018-09-05T20:33:22.634Z,27.80
2018-09-05T20:35:50.283Z,27.00
2018-09-05T20:38:18.159Z,26.67
2018-09-05T20:40:45.881Z,29.37
2018-09-05T20:43:14.469Z,28.43
2018-09-05T20:45:42.316Z,28.33
2018-09-05T20:48:10.160Z,29.43
2018-09-05T20:50:38.040Z,28.73
2018-09-05T20:53:05.989Z,29.63
2018-09-05T20:55:33.899Z,29.07
2018-09-05T20:58:01.561Z,27.97
2018-09-05T21:00:29.988Z,29.97
2018-09-05T21:02:57.592Z,30.30
2018-09-05T21:05:25.348Z,28.20
2018-09-05T21:07:53.231Z,28.73
2018-09-05T21:10:20.981Z,32.77
2018-09-05T21:12:48.704Z,32.30
2018-09-05T21:15:16.331Z,30.50
2018-09-05T21:17:44.553Z,31.70
2018-09-05T21:20:12.424Z,29.03
2018-09-05T21:22:39.960Z,27.80
2018-09-05T21:25:07.673Z,28.60
2018-09-05T21:27:36.203Z,28.60
2018-09-05T21:30:03.908Z,29.90
2018-09-05T21:32:31.783Z,31.57
2018-09-05T21:34:59.437Z,29.70
2018-09-05T21:37:27.194Z,31.97
2018-09-05T21:39:54.955Z,30.80
2018-09-05T21:42:23.272Z,32.60
2018-09-05T21:44:51.112Z,33.33
2018-09-05T21:47:18.819Z,33.57
2018-09-05T21:49:46.348Z,31.27
2018-09-05T21:52:14.160Z,32.47
2018-09-05T21:54:41.831Z,31.40
2018-09-05T21:57:09.520Z,29.97
2018-09-05T21:59:37.191Z,32.63
2018-09-05T22:02:05.080Z,31.77
2018-09-05T22:04:32.749Z,31.60
2018-09-05T22:07:01.292Z,34.00
2018-09-05T22:09:28.887Z,30.50
2018-09-05T22:11:56.941Z,33.10
2018-09-05T22:14:24.598Z,33.40
2018-09-05T22:16:52.430Z,35.07
2018-09-05T22:19:20.065Z,33.87
2018-09-05T22:21:47.639Z,33.87
2018-09-05T22:24:15.195Z,33.80
2018-09-05T22:26:42.960Z,32.00
2018-09-05T22:29:10.615Z,32.80
2018-09-05T22:31:38.351Z,33.90
2018-09-05T22:34:08.352Z,32.83
2018-09-05T22:36:35.963Z,33.70
2018-09-05T22:39:04.787Z,34.70
2018-09-05T22:41:32.465Z,34.43
2018-09-05T22:44:11.591Z,34.80
2018-09-05T22:46:50.531Z,33.57
2018-09-05T22:52:12.869Z,32.70
2018-09-05T22:55:02.636Z,32.77
2018-09-05T22:57:43.248Z,31.60
2018-09-05T23:02:27.151Z,32.87
2018-09-05T23:05:04.898Z,31.50
2018-09-05T23:07:47.837Z,33.60
2018-09-05T23:10:26.641Z,33.77
2018-09-05T23:13:05.804Z,33.57
2018-09-05T23:15:44.738Z,33.00
2018-09-05T23:18:24.443Z,33.17
2018-09-05T23:21:26.757Z,31.23
2018-09-05T23:24:01.686Z,33.07
2018-09-05T23:26:29.789Z,32.23
2018-09-05T23:28:57.472Z,34.20
2018-09-05T23:31:25.384Z,36.43
2018-09-05T23:33:53.825Z,33.47
2018-09-05T23:36:21.859Z,34.57
2018-09-05T23:38:49.605Z,39.00
2018-09-05T23:41:17.209Z,34.87
2018-09-05T23:43:44.973Z,35.53
2018-09-05T23:46:12.909Z,34.57
2018-09-05T23:48:40.484Z,36.27
2018-09-05T23:51:08.821Z,36.13
2018-09-05T23:53:36.537Z,36.50
2018-09-05T23:56:04.816Z,35.73
2018-09-05T23:58:32.649Z,37.00
